Time;durP1;ratioP1;P1;durP2;ratioP2;P2;SDS_P1;SDS_P2;PMS_P1;PMS_P2;Temp;Humidity;BMP_temperature;BMP_pressure;BME280_temperature;BME280_humidity;BME280_pressure;Samples;Min_cycle;Max_cycle;Signal;HPM_P1;HPM_P2
2023/04/27 00:00:56;;;;;;;6.95;4.20;;;;;;;7.45;46.59;99974.62;7790289;32;39899;-83
2023/04/27 00:05:12;;;;;;;8.95;4.65;;;;;;;7.50;46.16;99976.56;7799299;32;38610;-83
2023/04/27 00:09:29;;;;;;;8.18;3.90;;;;;;;7.20;46.20;99983.13;7799160;32;36869;-83
2023/04/27 00:13:45;;;;;;;6.30;3.85;;;;;;;7.17;46.27;99978.19;7799024;32;40059;-83
2023/04/27 00:18:02;;;;;;;7.47;4.07;;;;;;;7.10;46.54;99981.06;7798870;32;40036;-83
2023/04/27 00:22:18;;;;;;;7.87;4.22;;;;;;;7.13;46.49;99980.56;7799029;32;37689;-84
2023/04/27 00:26:35;;;;;;;6.47;4.18;;;;;;;7.41;46.50;99978.06;7798745;32;37011;-83
2023/04/27 00:30:53;;;;;;;7.82;4.07;;;;;;;7.31;46.76;99973.28;7781205;32;39187;-83
2023/04/27 00:35:10;;;;;;;5.32;3.80;;;;;;;7.30;47.49;99969.75;7771214;32;39943;-82
2023/04/27 00:39:26;;;;;;;5.05;4.03;;;;;;;7.23;47.95;99977.22;7771025;32;37887;-83
2023/04/27 00:43:44;;;;;;;7.90;4.80;;;;;;;7.14;48.16;99976.81;7765764;32;37808;-83
2023/04/27 00:48:00;;;;;;;11.38;4.50;;;;;;;6.97;49.01;99984.09;7766172;32;39988;-83
2023/04/27 00:52:17;;;;;;;7.25;4.15;;;;;;;6.76;49.82;99980.16;7766095;32;41322;-84
2023/04/27 00:56:33;;;;;;;7.12;4.05;;;;;;;6.72;49.68;99981.72;7765278;32;37799;-82
2023/04/27 01:00:50;;;;;;;6.90;4.00;;;;;;;6.66;49.55;99978.09;7764788;32;37788;-82
2023/04/27 01:05:08;;;;;;;8.30;4.28;;;;;;;6.55;49.62;99981.66;7766032;32;40062;-82
2023/04/27 01:09:24;;;;;;;7.25;3.90;;;;;;;6.60;49.54;99987.19;7765866;32;39984;-83
2023/04/27 01:13:40;;;;;;;8.20;4.82;;;;;;;6.68;49.48;99991.41;7765900;32;37852;-83
2023/04/27 01:18:00;;;;;;;7.57;4.20;;;;;;;6.49;49.71;99993.47;7765658;32;37114;-83
2023/04/27 01:22:17;;;;;;;11.45;4.20;;;;;;;6.38;50.21;99998.66;7765773;32;40060;-84
2023/04/27 01:26:33;;;;;;;8.30;3.92;;;;;;;6.56;49.66;99994.16;7787096;32;39926;-83
2023/04/27 01:30:50;;;;;;;6.20;4.15;;;;;;;6.53;49.44;99994.63;7792849;32;39421;-83
2023/04/27 01:35:06;;;;;;;8.30;4.45;;;;;;;6.48;49.40;99999.94;7792776;32;37983;-84
2023/04/27 01:39:23;;;;;;;9.77;4.93;;;;;;;6.23;49.91;100017.31;7791316;32;39448;-82
2023/04/27 01:43:40;;;;;;;10.05;4.43;;;;;;;6.32;58.09;100009.63;7792716;32;39941;-82
2023/04/27 01:47:57;;;;;;;9.77;4.70;;;;;;;6.34;51.50;100011.03;7765201;32;37813;-83
2023/04/27 01:52:13;;;;;;;8.70;4.37;;;;;;;6.17;50.93;100010.13;7765136;32;36838;-83
2023/04/27 01:56:29;;;;;;;8.70;5.03;;;;;;;6.28;50.73;100006.56;7765217;32;39389;-84
2023/04/27 02:00:46;;;;;;;9.57;4.45;;;;;;;5.98;51.59;100014.84;7765145;32;40813;-83
2023/04/27 02:05:03;;;;;;;6.80;4.70;;;;;;;5.99;51.25;100027.31;7765509;32;38071;-84
2023/04/27 02:09:19;;;;;;;8.57;4.60;;;;;;;6.12;50.55;100020.81;7765379;32;36825;-85
2023/04/27 02:13:36;;;;;;;5.68;4.20;;;;;;;5.93;50.88;100023.66;7765214;32;40101;-82
2023/04/27 02:17:52;;;;;;;8.48;4.43;;;;;;;5.93;51.36;100029.06;7765539;32;40892;-84
2023/04/27 02:22:08;;;;;;;9.05;4.90;;;;;;;5.86;51.95;100031.03;7764917;32;38596;-84
2023/04/27 02:26:28;;;;;;;7.87;4.62;;;;;;;5.91;51.78;100031.16;7764948;32;37873;-82
2023/04/27 02:30:45;;;;;;;7.28;4.25;;;;;;;5.63;52.35;100035.38;7765123;32;40121;-84
2023/04/27 02:35:01;;;;;;;10.35;4.55;;;;;;;5.84;51.93;100035.88;7764913;32;39986;-83
2023/04/27 02:39:17;;;;;;;8.70;5.07;;;;;;;5.77;52.08;100041.38;7772062;32;37847;-84
2023/04/27 02:43:34;;;;;;;8.48;4.57;;;;;;;5.79;51.75;100038.44;7791888;32;37081;-83
2023/04/27 02:47:50;;;;;;;9.25;4.87;;;;;;;5.67;52.04;100040.31;7791912;32;39234;-84
2023/04/27 02:52:07;;;;;;;6.97;4.75;;;;;;;5.69;52.03;100046.31;7791706;32;40848;-83
2023/04/27 02:56:23;;;;;;;9.32;5.10;;;;;;;5.63;52.20;100046.19;7791655;32;38075;-83
2023/04/27 03:00:40;;;;;;;8.02;4.60;;;;;;;5.70;52.26;100051.50;7791714;32;37866;-83
2023/04/27 03:04:58;;;;;;;8.80;5.07;;;;;;;5.54;52.78;100057.59;7779492;32;39521;-83
2023/04/27 03:09:14;;;;;;;9.27;5.03;;;;;;;5.21;53.34;100048.09;7764347;32;40063;-84
2023/04/27 03:13:40;;;;;;;9.88;5.25;;;;;;;5.13;53.66;100056.53;7764134;32;39096;-83
2023/04/27 03:17:56;;;;;;;12.13;5.37;;;;;;;5.34;53.32;100063.31;7764204;32;37929;-83
2023/04/27 03:22:12;;;;;;;5.93;4.35;;;;;;;5.33;53.13;100056.22;7764024;32;40270;-84
2023/04/27 03:26:29;;;;;;;6.93;4.37;;;;;;;5.33;52.59;100064.34;7763902;32;39909;-83
2023/04/27 03:30:45;;;;;;;8.55;4.87;;;;;;;5.36;52.54;100069.28;7763864;32;38674;-83
2023/04/27 03:35:02;;;;;;;7.40;4.70;;;;;;;5.23;52.55;100084.66;7777005;32;37624;-82
2023/04/27 03:39:18;;;;;;;13.00;4.68;;;;;;;5.13;53.11;100084.37;7790828;32;40119;-82
2023/04/27 03:43:35;;;;;;;8.70;4.68;;;;;;;5.09;53.29;100094.00;7790509;32;40781;-83
2023/04/27 03:47:51;;;;;;;9.27;4.90;;;;;;;5.15;53.07;100092.25;7790550;32;38497;-83
2023/04/27 03:52:07;;;;;;;7.18;4.25;;;;;;;5.25;52.87;100096.06;7790380;32;37063;-83
2023/04/27 03:56:24;;;;;;;9.05;4.95;;;;;;;5.14;53.04;100107.66;7790181;32;40037;-83
2023/04/27 04:00:40;;;;;;;7.57;4.75;;;;;;;5.12;53.25;100103.53;7790276;32;39996;-84
2023/04/27 04:04:56;;;;;;;8.23;4.47;;;;;;;5.16;53.25;100110.12;7789615;32;38603;-83
2023/04/27 04:09:13;;;;;;;8.43;4.70;;;;;;;5.21;53.18;100108.37;7789667;32;37258;-82
2023/04/27 04:13:30;;;;;;;6.35;4.37;;;;;;;5.33;53.07;100104.87;7790040;32;40091;-82
2023/04/27 04:17:48;;;;;;;8.27;4.72;;;;;;;4.98;53.93;100114.50;7792646;32;40778;-83
2023/04/27 04:22:04;;;;;;;6.95;4.70;;;;;;;5.11;53.74;100118.91;7793500;32;38707;-82
2023/04/27 04:26:22;;;;;;;7.53;4.82;;;;;;;5.21;53.44;100121.09;7793652;32;37030;-83
2023/04/27 04:30:39;;;;;;;7.68;5.05;;;;;;;5.26;53.63;100116.62;7774592;32;40163;-83
2023/04/27 04:34:55;;;;;;;7.05;4.65;;;;;;;5.18;53.95;100127.75;7766390;32;39797;-83
2023/04/27 04:39:12;;;;;;;11.35;4.80;;;;;;;5.08;54.61;100124.78;7766620;32;36951;-82
2023/04/27 04:43:29;;;;;;;6.93;4.43;;;;;;;5.20;54.43;100127.53;7766136;32;37202;-82
2023/04/27 04:47:46;;;;;;;9.25;4.72;;;;;;;5.29;54.66;100130.75;7766318;32;39869;-82
2023/04/27 04:52:05;;;;;;;7.40;4.65;;;;;;;5.56;54.19;100133.91;7766094;32;40750;-83
2023/04/27 04:56:21;;;;;;;11.95;4.87;;;;;;;5.67;54.04;100127.69;7765932;32;38626;-83
2023/04/27 05:00:38;;;;;;;11.90;5.40;;;;;;;5.71;53.97;100125.34;7783302;32;37871;-82
2023/04/27 05:04:56;;;;;;;6.07;4.30;;;;;;;5.51;54.61;100129.19;7793015;32;40111;-83
2023/04/27 05:09:12;;;;;;;8.93;4.90;;;;;;;5.70;54.89;100129.13;7791941;32;39865;-83
2023/04/27 05:13:29;;;;;;;9.48;5.07;;;;;;;5.83;54.76;100132.47;7792945;32;38516;-83
2023/04/27 05:17:46;;;;;;;8.75;4.93;;;;;;;5.70;55.47;100131.84;7792974;32;37027;-82
2023/04/27 05:22:02;;;;;;;11.15;5.45;;;;;;;5.90;55.74;100136.91;7792858;32;39347;-83
2023/04/27 05:26:20;;;;;;;13.48;5.18;;;;;;;6.09;55.09;100133.13;7768121;32;39904;-83
2023/04/27 05:30:36;;;;;;;13.52;5.55;;;;;;;6.44;54.40;100142.31;7765203;32;37920;-83
2023/04/27 05:34:53;;;;;;;10.88;5.20;;;;;;;6.05;54.36;100145.44;7764253;32;37111;-82
2023/04/27 05:39:10;;;;;;;11.18;5.22;;;;;;;6.55;54.29;100149.59;7765724;32;40569;-83
2023/04/27 05:43:26;;;;;;;8.70;4.97;;;;;;;6.60;53.02;100157.03;7765367;32;39980;-83
2023/04/27 05:47:43;;;;;;;8.75;4.37;;;;;;;6.83;52.97;100151.59;7765379;32;37903;-83
2023/04/27 05:51:59;;;;;;;8.50;4.78;;;;;;;6.72;52.00;100147.81;7765488;32;38449;-83
2023/04/27 05:56:16;;;;;;;7.72;4.85;;;;;;;7.25;51.60;100153.25;7784730;32;38898;-83
2023/04/27 06:00:32;;;;;;;6.12;4.72;;;;;;;7.36;50.89;100157.00;7792370;32;40796;-83
2023/04/27 06:04:48;;;;;;;12.90;4.45;;;;;;;7.44;51.18;100157.44;7792302;32;38510;-83
2023/04/27 06:09:05;;;;;;;7.78;4.90;;;;;;;7.36;50.58;100155.09;7792409;32;37165;-83
2023/04/27 06:13:21;;;;;;;10.13;4.55;;;;;;;7.63;50.62;100157.25;7792423;32;39145;-83
2023/04/27 06:17:38;;;;;;;9.80;5.07;;;;;;;8.04;50.07;100160.69;7766258;32;39872;-82
2023/04/27 06:21:55;;;;;;;7.55;4.40;;;;;;;8.14;49.28;100169.00;7765010;32;38589;-84
2023/04/27 06:26:11;;;;;;;6.60;3.95;;;;;;;8.19;49.81;100169.06;7764951;32;37091;-83
2023/04/27 06:30:27;;;;;;;10.02;4.95;;;;;;;8.21;50.51;100172.37;7765086;32;38988;-83
2023/04/27 06:34:44;;;;;;;9.85;4.78;;;;;;;8.42;52.04;100169.97;7764884;32;40688;-82
2023/04/27 06:39:00;;;;;;;10.57;4.60;;;;;;;8.49;51.90;100176.09;7763597;32;38035;-84
2023/04/27 06:43:16;;;;;;;9.38;4.85;;;;;;;8.76;51.85;100183.53;7764874;32;37922;-84
2023/04/27 06:47:33;;;;;;;8.68;4.80;;;;;;;8.90;51.57;100173.97;7764872;32;39847;-83
2023/04/27 06:51:49;;;;;;;8.95;4.43;;;;;;;8.93;50.62;100189.75;7764977;32;40114;-82
2023/04/27 06:56:10;;;;;;;8.35;4.35;;;;;;;9.20;50.06;100189.84;7736656;32;38589;-78
2023/04/27 07:00:27;;;;;;;8.95;4.60;;;;;;;9.54;55.62;100191.62;7762405;32;37047;-79
2023/04/27 07:04:43;;;;;;;8.25;4.62;;;;;;;9.64;50.41;100185.44;7791590;32;40282;-84
2023/04/27 07:08:59;;;;;;;14.68;5.05;;;;;;;10.07;49.12;100180.97;7791529;32;39825;-84
2023/04/27 07:13:16;;;;;;;7.22;3.53;;;;;;;10.58;45.85;100186.84;7791592;32;37800;-74
2023/04/27 07:17:32;;;;;;;9.60;4.00;;;;;;;10.47;45.00;100183.25;7791455;32;37143;-83
2023/04/27 07:21:49;;;;;;;9.57;4.57;;;;;;;10.56;45.12;100188.22;7768815;32;39301;-84
2023/04/27 07:26:06;;;;;;;8.63;4.25;;;;;;;10.68;43.17;100192.38;7764113;32;39565;-84
2023/04/27 07:30:23;;;;;;;8.32;4.37;;;;;;;10.67;43.34;100187.19;7782408;32;37843;-84
2023/04/27 07:34:39;;;;;;;9.45;4.37;;;;;;;10.53;43.72;100195.00;7764010;32;36704;-85
2023/04/27 07:39:08;;;;;;;11.70;5.00;;;;;;;10.99;44.21;100191.75;7768915;32;40076;-84
2023/04/27 07:43:24;;;;;;;17.48;5.45;;;;;;;10.78;45.13;100191.62;7787631;32;39962;-83
2023/04/27 07:47:41;;;;;;;11.00;4.50;;;;;;;10.64;44.33;100184.97;7766168;32;37786;-85
2023/04/27 07:51:57;;;;;;;8.48;4.05;;;;;;;11.22;44.32;100185.84;7791123;32;37617;-84
2023/04/27 07:56:14;;;;;;;8.52;4.10;;;;;;;11.18;41.05;100182.00;7772135;32;39336;-84
2023/04/27 08:00:31;;;;;;;8.93;4.57;;;;;;;11.36;39.44;100185.34;7766476;32;39993;-86
2023/04/27 08:04:48;;;;;;;7.50;4.60;;;;;;;11.23;40.50;100181.22;7765856;32;38105;-86
2023/04/27 08:09:05;;;;;;;13.52;4.47;;;;;;;11.57;39.93;100176.16;7765952;32;36799;-85
2023/04/27 08:13:21;;;;;;;10.68;4.65;;;;;;;11.70;40.27;100184.91;7781495;32;39212;-84
2023/04/27 08:17:40;;;;;;;7.25;3.97;;;;;;;11.71;38.99;100172.87;7787566;32;40029;-83
2023/04/27 08:21:57;;;;;;;8.98;4.40;;;;;;;12.03;36.97;100168.03;7773052;32;37932;-86
2023/04/27 08:26:14;;;;;;;9.68;4.05;;;;;;;12.08;40.41;100169.16;7748139;32;37688;-84
2023/04/27 08:30:31;;;;;;;7.43;3.55;;;;;;;12.68;36.98;100164.75;7764862;32;39220;-87
2023/04/27 08:34:47;;;;;;;5.62;2.40;;;;;;;12.59;35.13;100169.94;7765430;32;39894;-84
2023/04/27 08:39:06;;;;;;;9.07;2.75;;;;;;;12.63;33.27;100170.22;7763916;32;37784;-86
2023/04/27 08:43:23;;;;;;;6.12;2.90;;;;;;;13.08;32.69;100164.91;7765804;32;37874;-81
2023/04/27 08:47:39;;;;;;;5.30;2.40;;;;;;;13.04;32.43;100163.81;7756728;32;39396;-81
2023/04/27 08:51:59;;;;;;;7.43;2.08;;;;;;;13.45;29.59;100163.66;7737934;32;40844;-83
2023/04/27 08:56:16;;;;;;;4.07;1.98;;;;;;;14.08;30.23;100160.25;7739007;32;37735;-83
2023/04/27 09:00:40;;;;;;;5.95;2.03;;;;;;;13.88;29.01;100161.22;7739232;32;37052;-83
2023/04/27 09:04:56;;;;;;;6.68;1.98;;;;;;;13.41;28.18;100160.66;7738332;32;40206;-83
2023/04/27 09:09:22;;;;;;;8.15;2.40;;;;;;;13.48;30.77;100168.59;7739032;32;40079;-83
2023/04/27 09:13:40;;;;;;;12.02;2.00;;;;;;;13.24;29.23;100162.91;7758729;32;38698;-80
2023/04/27 09:17:57;;;;;;;4.65;2.12;;;;;;;13.61;27.74;100150.72;7765966;32;36347;-89
2023/04/27 09:22:14;;;;;;;3.87;2.10;;;;;;;13.57;28.90;100149.63;7765920;32;40123;-84
2023/04/27 09:26:30;;;;;;;4.28;2.15;;;;;;;13.76;27.20;100145.13;7763789;32;39862;-86
2023/04/27 09:31:01;;;;;;;4.18;2.00;;;;;;;14.15;28.98;100138.81;7740028;32;38658;-84
2023/04/27 09:35:28;;;;;;;3.17;1.70;;;;;;;14.33;25.60;100133.72;7738859;32;37137;-84
2023/04/27 09:39:45;;;;;;;2.70;1.60;;;;;;;15.26;26.60;100128.87;7778626;32;39279;-69
2023/04/27 09:44:02;;;;;;;3.97;1.90;;;;;;;15.12;27.68;100123.28;7768383;32;40622;-85
2023/04/27 09:48:19;;;;;;;5.15;2.12;;;;;;;15.08;26.21;100121.44;7764364;32;37889;-86
2023/04/27 09:52:36;;;;;;;5.95;2.12;;;;;;;15.20;27.19;100124.56;7765549;32;37873;-87
2023/04/27 09:57:02;;;;;;;3.90;2.00;;;;;;;14.09;27.80;100127.06;7754917;32;39369;-85
2023/04/27 10:01:56;;;;;;;3.92;1.90;;;;;;;14.59;27.97;100121.44;7757018;32;41083;-86
2023/04/27 10:06:40;;;;;;;2.87;1.90;;;;;;;15.83;26.67;100109.66;7688469;32;38015;-89
2023/04/27 10:10:57;;;;;;;3.17;2.05;;;;;;;16.25;25.19;100107.06;7764499;32;36984;-86
2023/04/27 10:15:15;;;;;;;5.20;1.80;;;;;;;16.93;24.65;100108.28;7765239;32;39392;-86
2023/04/27 10:19:31;;;;;;;5.07;1.80;;;;;;;16.75;23.46;100107.25;7754087;32;40407;-86
2023/04/27 10:23:50;;;;;;;5.97;2.30;;;;;;;16.85;22.92;100100.72;7738344;32;37844;-86
2023/04/27 10:28:09;;;;;;;6.03;2.33;;;;;;;16.52;23.96;100109.03;7738317;32;36411;-86
2023/04/27 10:32:26;;;;;;;3.70;1.92;;;;;;;15.66;24.85;100110.19;7753430;32;39934;-86
2023/04/27 10:36:42;;;;;;;3.97;2.10;;;;;;;16.21;26.08;100112.38;7738061;32;39961;-86
2023/04/27 10:41:00;;;;;;;4.53;2.10;;;;;;;16.40;26.03;100122.47;7738012;32;38828;-87
2023/04/27 10:45:27;;;;;;;5.12;2.00;;;;;;;16.00;24.82;100109.13;7738157;32;36410;-87
2023/04/27 10:49:47;;;;;;;6.45;2.33;;;;;;;16.56;27.48;100110.09;7738045;32;39596;-85
2023/04/27 10:54:03;;;;;;;7.70;2.55;;;;;;;17.43;25.28;100107.50;7743054;32;41253;-86
2023/04/27 10:58:23;;;;;;;8.25;1.92;;;;;;;16.92;27.22;100105.81;7764687;32;37912;-85
2023/04/27 11:02:46;;;;;;;4.95;1.73;;;;;;;17.96;26.10;100106.03;7767077;32;36945;-85
2023/04/27 11:07:03;;;;;;;5.30;2.45;;;;;;;17.49;23.47;100102.69;7760815;32;40477;-85
2023/04/27 11:11:21;;;;;;;6.70;2.10;;;;;;;17.45;23.80;100095.06;7745238;32;39830;-86
2023/04/27 11:15:49;;;;;;;6.22;2.08;;;;;;;18.34;23.88;100091.81;7757097;32;37639;-87
2023/04/27 11:20:07;;;;;;;9.48;2.37;;;;;;;18.13;23.53;100094.28;7758225;32;36719;-89
2023/04/27 11:24:23;;;;;;;5.60;1.92;;;;;;;16.56;23.52;100092.72;7748707;32;39042;-87
2023/04/27 11:28:41;;;;;;;5.97;2.45;;;;;;;17.41;24.37;100091.28;7763735;32;40044;-86
2023/04/27 11:32:57;;;;;;;4.35;2.33;;;;;;;18.03;25.53;100100.88;7763920;32;37682;-68
2023/04/27 11:37:24;;;;;;;9.70;1.77;;;;;;;18.57;22.48;100082.34;7779238;32;37085;-87
2023/04/27 11:41:45;;;;;;;4.53;2.00;;;;;;;18.07;22.97;100098.31;7779131;32;40126;-86
2023/04/27 11:46:05;;;;;;;4.07;1.70;;;;;;;18.69;20.47;100083.69;7774834;32;40044;-86
2023/04/27 11:50:24;;;;;;;6.28;2.12;;;;;;;18.88;20.57;100069.62;7763515;32;38809;-86
2023/04/27 11:54:51;;;;;;;7.28;2.10;;;;;;;18.72;22.06;100078.34;7763195;32;38201;-86
2023/04/27 11:59:26;;;;;;;7.20;2.42;;;;;;;18.99;22.17;100089.50;7762327;32;40103;-85
2023/04/27 12:03:42;;;;;;;3.12;1.60;;;;;;;20.04;22.38;100090.38;7762180;32;39978;-86
2023/04/27 12:07:59;;;;;;;3.62;1.80;;;;;;;20.03;19.61;100088.78;7745570;32;38353;-85
2023/04/27 12:12:21;;;;;;;5.32;1.98;;;;;;;19.88;19.12;100079.81;7744752;32;36960;-86
2023/04/27 12:16:37;;;;;;;4.22;1.70;;;;;;;19.87;19.69;100072.69;7744712;32;40023;-85
2023/04/27 12:20:54;;;;;;;5.12;1.80;;;;;;;20.35;19.39;100075.50;7745901;32;39989;-87
2023/04/27 12:25:10;;;;;;;5.35;1.70;;;;;;;19.61;17.72;100072.66;7747233;32;38763;-85
2023/04/27 12:29:26;;;;;;;7.55;1.80;;;;;;;18.12;20.06;100087.13;7754671;32;36978;-86
2023/04/27 12:33:43;;;;;;;5.57;2.10;;;;;;;18.76;20.40;100073.81;7742838;32;39228;-84
2023/04/27 12:37:59;;;;;;;3.12;1.90;;;;;;;19.89;19.32;100064.84;7737703;32;39722;-85
2023/04/27 12:42:18;;;;;;;5.72;1.90;;;;;;;18.73;19.09;100071.69;7747354;32;38750;-86
2023/04/27 12:46:34;;;;;;;2.90;1.50;;;;;;;19.59;21.36;100057.53;7766355;32;35913;-86
2023/04/27 12:50:51;;;;;;;2.15;1.48;;;;;;;20.57;18.38;100047.53;7766508;32;39828;-87
2023/04/27 12:55:08;;;;;;;5.00;1.60;;;;;;;20.73;19.04;100052.56;7764980;32;40842;-87
2023/04/27 12:59:40;;;;;;;5.20;2.03;;;;;;;21.14;19.54;100053.78;7766289;32;38732;-87
2023/04/27 13:04:01;;;;;;;3.15;1.60;;;;;;;20.19;17.60;100055.84;7766225;32;37026;-87
2023/04/27 13:08:18;;;;;;;5.90;2.12;;;;;;;19.35;20.17;100052.47;7744517;32;38673;-86
2023/04/27 13:12:35;;;;;;;3.85;1.90;;;;;;;20.06;20.71;100055.72;7739083;32;39863;-86
2023/04/27 13:16:51;;;;;;;2.53;1.55;;;;;;;20.47;18.05;100053.44;7738536;32;38781;-88
2023/04/27 13:21:07;;;;;;;6.53;2.10;;;;;;;19.90;17.61;100046.28;7740726;32;36622;-86
2023/04/27 13:25:24;;;;;;;3.62;1.67;;;;;;;21.04;19.87;100051.41;7738844;32;39364;-85
2023/04/27 13:29:41;;;;;;;2.75;1.50;;;;;;;22.09;19.82;100045.78;7738788;32;40814;-86
2023/04/27 13:33:57;;;;;;;4.22;1.80;;;;;;;22.17;17.36;100038.53;7757421;32;37686;-86
2023/04/27 13:38:14;;;;;;;7.68;2.35;;;;;;;22.76;17.77;100051.25;7746219;32;37020;-86
2023/04/27 13:42:30;;;;;;;5.22;1.90;;;;;;;21.12;18.68;100054.13;7759690;32;39376;-86
2023/04/27 13:46:46;;;;;;;6.75;1.95;;;;;;;21.71;17.69;100053.22;7764386;32;40816;-86
2023/04/27 13:51:02;;;;;;;7.40;1.80;;;;;;;21.68;18.01;100053.87;7764818;32;37953;-86
2023/04/27 13:55:19;;;;;;;2.25;1.50;;;;;;;21.84;18.50;100044.94;7765569;32;37129;-86
2023/04/27 13:59:35;;;;;;;5.90;1.92;;;;;;;21.87;17.89;100052.56;7765616;32;39251;-85
2023/04/27 14:03:51;;;;;;;3.42;1.50;;;;;;;20.24;17.27;100064.78;7765345;32;39870;-85
2023/04/27 14:08:08;;;;;;;5.85;1.92;;;;;;;19.98;17.27;100056.53;7765419;32;38971;-86
2023/04/27 14:12:25;;;;;;;13.85;2.33;;;;;;;18.83;20.09;100053.22;7765416;32;37345;-86
2023/04/27 14:16:41;;;;;;;5.87;1.70;;;;;;;19.05;21.36;100064.16;7765447;32;39265;-86
2023/04/27 14:20:58;;;;;;;6.03;2.08;;;;;;;19.38;19.93;100063.72;7765338;32;40758;-86
2023/04/27 14:25:14;;;;;;;6.95;2.22;;;;;;;19.64;19.05;100062.91;7765418;32;38723;-86
2023/04/27 14:29:30;;;;;;;6.50;2.28;;;;;;;19.69;20.36;100066.31;7765253;32;36999;-87
2023/04/27 14:33:47;;;;;;;4.70;1.70;;;;;;;19.52;20.32;100066.31;7765252;32;39309;-86
2023/04/27 14:38:03;;;;;;;5.43;1.95;;;;;;;19.91;21.08;100069.25;7765386;32;40058;-87
2023/04/27 14:42:19;;;;;;;4.80;2.00;;;;;;;20.00;19.22;100070.06;7764931;32;37845;-86
2023/04/27 14:46:36;;;;;;;7.05;2.00;;;;;;;19.91;20.20;100070.06;7764930;32;37181;-86
2023/04/27 14:50:52;;;;;;;13.88;2.30;;;;;;;20.44;18.93;100057.72;7763769;32;40060;-87
2023/04/27 14:55:10;;;;;;;4.20;1.98;;;;;;;20.33;20.57;100072.25;7764678;32;40265;-87
2023/04/27 14:59:26;;;;;;;5.75;1.77;;;;;;;20.50;18.52;100060.31;7764158;32;37745;-86
2023/04/27 15:03:42;;;;;;;2.62;1.80;;;;;;;20.38;18.38;100072.06;7764370;32;37793;-87
2023/04/27 15:08:00;;;;;;;4.95;1.60;;;;;;;19.17;19.45;100085.63;7764824;32;39999;-87
2023/04/27 15:12:16;;;;;;;5.55;1.90;;;;;;;18.98;20.62;100074.87;7764891;32;40095;-87
2023/04/27 15:16:32;;;;;;;3.95;1.85;;;;;;;19.40;20.12;100075.25;7750621;32;37913;-87
2023/04/27 15:20:53;;;;;;;4.05;1.73;;;;;;;19.61;20.08;100069.91;7763430;32;37129;-87
2023/04/27 15:25:10;;;;;;;4.00;1.83;;;;;;;20.11;19.74;100065.81;7764359;32;40076;-87
2023/04/27 15:29:26;;;;;;;4.20;1.80;;;;;;;20.42;19.13;100065.53;7764228;32;40785;-87
2023/04/27 15:33:42;;;;;;;5.65;1.65;;;;;;;20.01;19.57;100060.63;7764010;32;37899;-88
2023/04/27 15:37:59;;;;;;;3.28;1.35;;;;;;;20.47;18.96;100061.75;7763931;32;37687;-87
2023/04/27 15:42:15;;;;;;;6.47;1.87;;;;;;;19.89;18.73;100064.06;7762965;32;40093;-87
2023/04/27 15:46:32;;;;;;;5.35;1.90;;;;;;;19.13;19.70;100060.59;7758778;32;39964;-87
2023/04/27 15:50:48;;;;;;;4.05;1.95;;;;;;;19.13;19.15;100068.88;7761270;32;37949;-85
2023/04/27 15:55:05;;;;;;;4.10;1.87;;;;;;;19.18;20.04;100056.03;7762605;32;37073;-86
2023/04/27 15:59:21;;;;;;;6.32;1.85;;;;;;;19.01;20.43;100063.19;7762871;32;39877;-86
2023/04/27 16:03:38;;;;;;;4.40;1.67;;;;;;;18.72;20.84;100058.19;7749330;32;39849;-85
2023/04/27 16:07:54;;;;;;;7.68;2.05;;;;;;;18.32;19.72;100050.72;7748175;32;38015;-86
2023/04/27 16:12:10;;;;;;;6.37;1.87;;;;;;;18.41;20.94;100055.47;7737148;32;37752;-85
2023/04/27 16:16:27;;;;;;;8.70;2.15;;;;;;;18.17;20.76;100062.97;7738781;32;39414;-85
2023/04/27 16:20:43;;;;;;;2.55;1.60;;;;;;;17.86;21.25;100073.16;7739166;32;40568;-85
2023/04/27 16:25:00;;;;;;;4.43;1.67;;;;;;;17.67;22.47;100081.59;7764652;32;37769;-84
2023/04/27 16:29:16;;;;;;;4.70;1.58;;;;;;;17.86;22.32;100075.91;7758383;32;37117;-85
2023/04/27 16:33:32;;;;;;;4.32;1.98;;;;;;;17.36;22.49;100077.59;7746268;32;39377;-85
2023/04/27 16:37:49;;;;;;;8.32;1.87;;;;;;;17.99;21.57;100080.56;7765185;32;39950;-85
2023/04/27 16:42:06;;;;;;;7.22;1.80;;;;;;;17.93;21.91;100084.56;7759488;32;38023;-85
2023/04/27 16:46:22;;;;;;;3.75;1.60;;;;;;;17.79;22.44;100090.12;7743286;32;37097;-85
2023/04/27 16:50:39;;;;;;;5.07;1.90;;;;;;;17.97;22.97;100080.06;7766030;32;39277;-86
2023/04/27 16:54:56;;;;;;;4.97;1.87;;;;;;;17.62;21.99;100085.28;7765506;32;40729;-85
2023/04/27 16:59:12;;;;;;;6.90;2.10;;;;;;;18.29;21.64;100081.72;7765284;32;37980;-85
2023/04/27 17:03:29;;;;;;;13.38;2.55;;;;;;;18.94;21.45;100073.91;7766110;32;36734;-86
2023/04/27 17:07:46;;;;;;;8.38;2.30;;;;;;;19.14;20.84;100070.53;7763676;32;39839;-86
2023/04/27 17:12:07;;;;;;;6.55;2.03;;;;;;;18.91;22.17;100088.34;7765512;32;40017;-85
2023/04/27 17:16:25;;;;;;;3.80;2.00;;;;;;;18.44;22.06;100082.44;7764352;32;37993;-85
2023/04/27 17:20:42;;;;;;;5.62;1.90;;;;;;;18.01;22.51;100092.91;7765137;32;37118;-85
2023/04/27 17:24:58;;;;;;;4.82;1.70;;;;;;;17.71;23.61;100101.91;7764510;32;40390;-85
2023/04/27 17:29:15;;;;;;;6.32;2.50;;;;;;;17.18;23.64;100104.19;7765089;32;39887;-85
2023/04/27 17:33:31;;;;;;;5.97;2.25;;;;;;;17.10;23.98;100106.84;7765719;32;38008;-85
2023/04/27 17:37:47;;;;;;;3.17;1.90;;;;;;;16.93;24.41;100105.53;7761931;32;36683;-86
2023/04/27 17:42:05;;;;;;;4.57;2.03;;;;;;;16.55;25.97;100107.63;7755815;32;39865;-85
2023/04/27 17:46:21;;;;;;;3.80;1.60;;;;;;;16.23;26.70;100112.03;7738106;32;40501;-86
2023/04/27 17:50:39;;;;;;;14.23;2.55;;;;;;;15.92;27.29;100116.13;7740149;32;38797;-86
2023/04/27 17:54:56;;;;;;;4.40;1.80;;;;;;;15.64;27.88;100128.87;7781630;32;37123;-88
2023/04/27 17:59:12;;;;;;;6.32;2.05;;;;;;;15.42;28.17;100125.91;7764944;32;39327;-85
2023/04/27 18:03:30;;;;;;;12.60;2.65;;;;;;;15.15;28.43;100127.38;7764969;32;40204;-85
2023/04/27 18:07:48;;;;;;;5.20;2.20;;;;;;;15.17;28.45;100136.13;7773130;32;37999;-86
2023/04/27 18:12:09;;;;;;;5.25;1.98;;;;;;;14.69;28.87;100141.63;7765586;32;34958;-85
2023/04/27 18:16:26;;;;;;;6.62;2.15;;;;;;;14.80;28.72;100141.22;7753820;32;39467;-90
2023/04/27 18:20:43;;;;;;;4.87;2.28;;;;;;;14.58;28.88;100149.97;7742290;32;40768;-86
2023/04/27 18:25:00;;;;;;;4.78;2.62;;;;;;;14.41;29.32;100157.78;7793797;32;37829;-89
2023/04/27 18:29:16;;;;;;;6.07;2.83;;;;;;;14.25;28.38;100155.19;7790065;32;37108;-88
2023/04/27 18:33:32;;;;;;;6.87;2.83;;;;;;;14.13;28.43;100173.94;7752828;32;40079;-89
2023/04/27 18:37:49;;;;;;;5.47;2.25;;;;;;;14.00;30.09;100180.03;7774748;32;40846;-87
2023/04/27 18:42:05;;;;;;;5.03;2.60;;;;;;;13.82;29.68;100185.09;7751172;32;38727;-89
2023/04/27 18:46:21;;;;;;;6.12;2.87;;;;;;;13.78;30.28;100183.19;7758144;32;36745;-87
2023/04/27 18:50:38;;;;;;;5.30;2.92;;;;;;;13.71;30.78;100187.09;7749862;32;39017;-84
2023/04/27 18:54:55;;;;;;;7.90;3.20;;;;;;;13.50;31.25;100193.78;7759420;32;40327;-87
2023/04/27 18:59:11;;;;;;;10.35;3.17;;;;;;;13.42;31.49;100197.09;7752911;32;38099;-84
2023/04/27 19:03:28;;;;;;;5.93;2.92;;;;;;;13.11;31.29;100208.16;7749625;32;37104;-82
2023/04/27 19:07:44;;;;;;;7.70;3.08;;;;;;;13.15;32.16;100204.56;7767443;32;39553;-84
2023/04/27 19:12:01;;;;;;;5.57;2.60;;;;;;;12.90;32.69;100201.88;7737671;32;39918;-87
2023/04/27 19:16:18;;;;;;;5.35;2.60;;;;;;;12.73;32.99;100207.69;7737397;32;38037;-86
2023/04/27 19:20:35;;;;;;;8.27;2.90;;;;;;;12.84;33.30;100208.47;7782387;32;37150;-89
2023/04/27 19:24:51;;;;;;;4.78;2.92;;;;;;;12.43;34.05;100217.53;7791520;32;39018;-88
2023/04/27 19:29:08;;;;;;;7.95;3.28;;;;;;;12.21;34.27;100221.38;7781875;32;40834;-88
2023/04/27 19:33:24;;;;;;;6.07;3.35;;;;;;;12.09;34.69;100222.72;7763382;32;38007;-88
2023/04/27 19:37:41;;;;;;;4.78;3.10;;;;;;;11.93;35.27;100236.34;7751591;32;36992;-87
2023/04/27 19:41:57;;;;;;;9.57;3.30;;;;;;;11.84;35.72;100227.00;7744535;32;39179;-87
2023/04/27 19:46:14;;;;;;;7.65;3.50;;;;;;;11.79;35.42;100227.00;7743747;32;40301;-86
2023/04/27 19:50:30;;;;;;;6.15;3.08;;;;;;;11.69;36.73;100232.44;7755671;32;38059;-88
2023/04/27 19:54:53;;;;;;;7.47;3.25;;;;;;;11.34;37.46;100229.28;7751923;32;37019;-87
2023/04/27 19:59:09;;;;;;;6.87;3.08;;;;;;;11.32;36.63;100228.75;7751280;32;39018;-86